Details for BA CityFlyer at EGLC




Go Back


Latest METAR
Local Time

EGLC 180620Z AUTO 24010KT 9999 OVC032 17/13 Q1020
18/08/2018, 07:27:45

Description
Results
BA CityFlyer Logo
Number of Pilots based at EGLC
0 Pilots Based here
Number of BA CityFlyer Flights Departed from EGLC
1 Flights Departed
Number of BA CityFlyer Flights Arrived at EGLC
1 Flights Arrived
Number of BA CityFlyer Schedules Departing from EGLC
101 Schedules
Number of BA CityFlyer Schedules Arriving at EGLC
95 Schedules
Number of BA CityFlyer Schedules Departing from EGLC availible today
12 Schedules Today
Number of BA CityFlyer Schedules Arriving at EGLC availible today
13 Schedules Today
Average Landing Rate at EGLC
-409 fpm
BA CityFlyer Average Landing Rate at EGLC
-512 fpm
Total Fuel Purchased at EGLC by BA CityFlyer
939.39 kgs / 2,070.98 lbs

Pilots Based at EGLC


Pilot ID
Pilot Name
Pilot Rank
No. of Flights
No. of Flying Hours
There are no pilots assigned to this hub!   Will you be the first?
Content